Saint Johns, MI

5:24 AM EDT on March 31, 2015 (GMT -0400)
KMIWESTP2 | | Change Station
CLOSE
Current Station
Personal Weather Station
Location: Westphalia, MI
Elevation: 788 ft
Nearby Weather Stations

Elev 788 ft 42.93 °N, 84.79 °W | Updated 6 seconds ago

Overcast
Overcast
36.7 °F
Feels Like 31 °F
N
6.9
Wind Variable Wind from NE
Gusts 11.4 mph

Today
High -- | Low -- °F
--% Chance of Precip.
Yesterday
High -- | Low -- °F
Precip. -- in
7:22 AM 8:03 PM
Waxing Gibbous, 85% visible
Pressure 29.76 in
Visibility 8.0 miles
Clouds Overcast 500 ft
Windchill 31 °F
Dew Point 36 °F
Humidity 99%
Rainfall 0.27 in
Snow Depth Not available.
UV 0 out of 12
Pollen 6.20 out of 12
Air Quality Not available.
Flu Activity Not available.
METAR KLAN 310853Z 07009KT 8SM OVC005 04/03 A2974 RMK AO2 RAE02 SLP076 P0000 60015 T00390028 58032

More Conditions Fewer Conditions

Pressure 29.76 in
Visibility 8.0 miles
Clouds Overcast 500 ft
Windchill 31 °F
Dew Point 36 °F
Humidity 99%
Rainfall 0.27 in
Snow Depth Not available.
UV 0 out of 12
Pollen 6.20 out of 12
Air Quality Not available.
Flu Activity Not available.
METAR KLAN 310853Z 07009KT 8SM OVC005 04/03 A2974 RMK AO2 RAE02 SLP076 P0000 60015 T00390028 58032

More Conditions Fewer Conditions

10-Day Weather Forecast

Almanac

Astronomy

Mar. 31, 2015 Rise Set
Actual Time
Civil Twilight
Nautical Twilight
Astronomical Twilight
Moon
Length of Visible Light
Length of Day
Tomorrow will be .
, % of the Moon is Illuminated

Today's Extremes

State Highs State Lows

Community

WunderPhotos

Upload Photos

1,809,733 photos uploaded!

WunderBlogs® & News

Nearby

Air Quality

  Air Quality AQ Index Pollutant
Not available.

Snow Depth

Station Depth Elevation

Earthquake Activity

City Distance Mag. Time & Date
Minimum magnitude displayed is 2.5.

Coastal Water Temperatures

Place Temperature

Stations

Nearby Weather Stations

Station Location Temp. Windchill Dew Point Humidity Wind Precip. Elev Updated Type